Time;durP1;ratioP1;P1;durP2;ratioP2;P2;SDS_P1;SDS_P2;PMS_P1;PMS_P2;Temp;Humidity;BMP_temperature;BMP_pressure;BME280_temperature;BME280_humidity;BME280_pressure;Samples;Min_cycle;Max_cycle;Signal;HPM_P1;HPM_P2
2022/05/09 00:01:57;;;;;;;8.35;3.53;;;;;;;9.52;92.05;102720.50;10459012;28;20049;-62
2022/05/09 00:07:00;;;;;;;14.38;3.40;;;;;;;9.63;90.95;102716.75;10459033;28;20045;-62
2022/05/09 00:12:02;;;;;;;9.82;2.97;;;;;;;9.45;91.47;102707.56;10458567;28;20045;-62
2022/05/09 00:17:05;;;;;;;11.43;3.58;;;;;;;9.46;93.43;102703.19;10458175;28;20045;-62
2022/05/09 00:22:07;;;;;;;12.23;3.60;;;;;;;9.32;93.69;102698.25;10457456;28;20491;-62
2022/05/09 00:27:10;;;;;;;13.52;3.50;;;;;;;9.39;91.26;102705.06;10457438;28;20403;-62
2022/05/09 00:32:12;;;;;;;9.10;2.92;;;;;;;9.25;93.01;102699.28;10440293;28;20048;-62
2022/05/09 00:37:15;;;;;;;10.80;3.30;;;;;;;9.05;95.05;102695.34;10457272;28;20400;-62
2022/05/09 00:42:18;;;;;;;14.25;3.38;;;;;;;9.02;95.96;102699.78;10457430;28;20056;-62
2022/05/09 00:47:21;;;;;;;12.10;4.00;;;;;;;8.93;97.13;102692.97;10439697;28;20052;-62
2022/05/09 00:52:48;;;;;;;7.90;3.00;;;;;;;8.97;95.27;102685.94;10456634;28;20503;-62
2022/05/09 00:58:02;;;;;;;9.07;3.33;;;;;;;8.93;96.19;102692.97;10445781;28;20056;-62
2022/05/09 01:03:18;;;;;;;10.52;3.17;;;;;;;8.86;95.75;102688.75;10456301;28;20052;-62
2022/05/09 01:08:21;;;;;;;11.60;4.32;;;;;;;8.68;99.00;102683.00;10456935;28;20060;-62
2022/05/09 01:13:26;;;;;;;10.57;4.32;;;;;;;8.54;100.00;102685.03;10439177;28;20044;-62
2022/05/09 01:18:29;;;;;;;8.38;3.45;;;;;;;8.38;100.00;102684.41;10439009;28;20053;-62
2022/05/09 01:23:35;;;;;;;11.85;3.88;;;;;;;8.59;100.00;102677.09;10456240;28;20045;-62
2022/05/09 01:28:37;;;;;;;11.85;3.63;;;;;;;8.47;100.00;102675.56;10458019;28;20063;-62
2022/05/09 01:33:42;;;;;;;9.35;4.13;;;;;;;8.18;100.00;102663.88;10446581;28;20045;-62
2022/05/09 01:38:50;;;;;;;10.13;3.83;;;;;;;8.27;100.00;102666.34;10446497;28;20045;-62
2022/05/09 01:43:55;;;;;;;12.93;4.10;;;;;;;8.22;100.00;102660.34;10446124;28;20053;-62
2022/05/09 01:54:18;;;;;;;18.63;4.93;;;;;;;8.02;100.00;102665.03;10449119;28;20056;-62
2022/05/09 01:59:21;;;;;;;17.60;5.32;;;;;;;7.95;100.00;102661.66;10446152;28;20045;-62
2022/05/09 02:04:23;;;;;;;11.25;3.78;;;;;;;7.98;100.00;102659.00;10445678;28;20049;-62
2022/05/09 02:09:26;;;;;;;7.50;4.07;;;;;;;8.03;100.00;102664.16;10463408;28;20106;-62
2022/05/09 02:14:28;;;;;;;12.18;4.47;;;;;;;7.81;100.00;102664.50;10463232;28;20056;-62
2022/05/09 02:19:31;;;;;;;11.52;4.13;;;;;;;7.72;100.00;102669.88;10463008;28;20053;-62
2022/05/09 02:24:33;;;;;;;11.70;4.72;;;;;;;7.67;100.00;102669.94;10462685;28;20056;-62
2022/05/09 02:29:37;;;;;;;15.32;5.70;;;;;;;7.69;100.00;102668.16;10462521;28;20055;-62
2022/05/09 02:34:40;;;;;;;11.18;5.03;;;;;;;7.63;100.00;102668.25;10461808;28;20048;-62
2022/05/09 02:39:42;;;;;;;16.08;4.88;;;;;;;7.42;100.00;102665.06;10462172;28;20052;-62
2022/05/09 02:44:45;;;;;;;14.98;5.72;;;;;;;7.46;100.00;102659.81;10244803;23;20525;-61
2022/05/09 02:49:47;;;;;;;16.85;5.75;;;;;;;7.40;100.00;102653.81;10212423;29;20479;-61
2022/05/09 02:54:49;;;;;;;9.40;4.15;;;;;;;7.57;100.00;102639.69;10212858;29;20047;-61
2022/05/09 02:59:52;;;;;;;10.43;5.10;;;;;;;7.42;100.00;102651.19;10212753;29;20066;-61
2022/05/09 03:04:54;;;;;;;12.75;4.93;;;;;;;7.31;100.00;102643.50;10212691;29;20043;-61
2022/05/09 03:09:56;;;;;;;11.73;6.20;;;;;;;6.95;100.00;102655.31;10212497;29;20055;-61
2022/05/09 03:14:59;;;;;;;16.02;6.07;;;;;;;7.08;100.00;102643.84;10212320;29;20066;-61
2022/05/09 03:20:03;;;;;;;16.77;6.70;;;;;;;7.11;100.00;102643.81;10212151;29;20061;-61
2022/05/09 03:25:07;;;;;;;12.27;5.93;;;;;;;6.96;100.00;102637.06;10211380;28;20461;-61
2022/05/09 03:30:10;;;;;;;12.30;5.75;;;;;;;7.10;100.00;102626.44;10211885;28;20066;-61
2022/05/09 03:35:14;;;;;;;11.48;5.55;;;;;;;7.15;100.00;102631.59;10211721;28;20075;-61
2022/05/09 03:40:18;;;;;;;11.57;5.13;;;;;;;7.16;100.00;102626.38;10211359;29;20056;-61
2022/05/09 03:45:20;;;;;;;15.82;7.25;;;;;;;7.02;100.00;102628.28;10211754;29;20059;-61
2022/05/09 03:50:23;;;;;;;16.65;5.95;;;;;;;7.06;100.00;102619.53;10210041;29;20122;-61
2022/05/09 03:55:25;;;;;;;12.18;5.05;;;;;;;7.04;100.00;102619.59;10210425;29;20426;-61
2022/05/09 04:00:32;;;;;;;10.73;6.25;;;;;;;6.90;100.00;102625.84;10225006;29;20067;-61
2022/05/09 04:05:35;;;;;;;12.25;5.38;;;;;;;7.21;100.00;102621.06;10210121;28;20399;-61
2022/05/09 04:10:40;;;;;;;11.88;6.20;;;;;;;6.99;100.00;102623.13;10211381;28;20101;-61
2022/05/09 04:21:08;;;;;;;11.98;5.90;;;;;;;7.11;100.00;102627.31;10210405;28;20130;-61
2022/05/09 04:26:12;;;;;;;16.80;6.80;;;;;;;7.15;100.00;102621.19;10210533;28;20058;-61
2022/05/09 04:31:15;;;;;;;16.15;6.90;;;;;;;7.25;100.00;102623.63;10210008;28;20056;-61
2022/05/09 04:36:18;;;;;;;17.33;6.40;;;;;;;7.16;100.00;102622.88;10209854;28;20109;-61
2022/05/09 04:41:22;;;;;;;16.00;7.13;;;;;;;7.34;100.00;102622.63;10208962;29;20059;-61
2022/05/09 04:46:24;;;;;;;11.68;6.13;;;;;;;7.38;100.00;102611.28;10210026;28;20054;-61
2022/05/09 04:51:26;;;;;;;20.35;7.55;;;;;;;7.40;100.00;102616.47;10209487;28;20450;-61
2022/05/09 04:56:29;;;;;;;16.08;7.18;;;;;;;7.49;100.00;102611.13;10209332;28;20056;-61
2022/05/09 05:01:31;;;;;;;12.57;7.28;;;;;;;7.50;100.00;102601.53;10208530;29;20490;-61
2022/05/09 05:06:33;;;;;;;14.70;6.82;;;;;;;7.52;100.00;102607.63;10207953;28;20126;-61
2022/05/09 05:11:37;;;;;;;14.77;7.40;;;;;;;7.79;100.00;102612.38;10208883;29;20051;-61
2022/05/09 05:22:01;;;;;;;17.02;7.07;;;;;;;8.14;100.00;102595.25;10208685;28;20059;-61
2022/05/09 05:27:05;;;;;;;17.05;8.30;;;;;;;8.09;100.00;102594.47;10207806;28;20448;-61
2022/05/09 05:32:23;;;;;;;13.27;6.78;;;;;;;8.35;100.00;102590.50;10207761;29;20410;-61
2022/05/09 05:37:26;;;;;;;19.00;7.65;;;;;;;8.50;100.00;102599.81;10208685;28;20048;-61
2022/05/09 05:42:29;;;;;;;15.40;7.55;;;;;;;8.89;100.00;102600.75;10207928;29;20067;-61
2022/05/09 05:47:31;;;;;;;16.85;7.13;;;;;;;8.79;97.93;102608.81;10207375;29;20534;-61
2022/05/09 05:52:33;;;;;;;17.80;7.57;;;;;;;8.79;98.01;102604.44;10207253;29;20411;-61
2022/05/09 05:57:38;;;;;;;15.93;6.78;;;;;;;9.02;96.76;102609.16;10207814;29;20407;-61
2022/05/09 06:02:41;;;;;;;20.75;7.45;;;;;;;9.15;96.79;102614.16;10207641;28;20059;-61
2022/05/09 06:07:44;;;;;;;12.48;7.03;;;;;;;9.21;96.40;102607.03;10207428;29;20080;-61
2022/05/09 06:12:47;;;;;;;14.02;6.32;;;;;;;9.25;97.45;102598.22;10206777;28;20051;-61
2022/05/09 06:17:49;;;;;;;17.00;5.70;;;;;;;9.18;97.51;102601.88;10213241;28;20063;-61
2022/05/09 06:22:54;;;;;;;13.65;6.32;;;;;;;9.44;95.05;102600.41;10213662;28;20052;-61
2022/05/09 06:27:58;;;;;;;17.50;5.88;;;;;;;9.62;96.54;102588.63;10213826;29;20048;-61
2022/05/09 06:33:00;;;;;;;15.43;5.90;;;;;;;10.04;92.71;102583.19;10213346;29;20055;-61
2022/05/09 06:38:05;;;;;;;13.48;6.00;;;;;;;9.87;94.27;102588.88;10212734;29;20063;-61
2022/05/09 06:43:08;;;;;;;17.83;6.53;;;;;;;9.98;95.79;102578.97;10212605;29;20060;-61
2022/05/09 06:48:11;;;;;;;11.25;5.50;;;;;;;10.08;93.63;102579.59;10213444;29;20062;-61
2022/05/09 06:53:13;;;;;;;17.35;6.35;;;;;;;10.30;90.70;102574.63;10230702;28;20047;-61
2022/05/09 06:58:21;;;;;;;21.15;6.05;;;;;;;10.62;89.98;102574.66;10212308;28;20048;-62
2022/05/09 07:03:25;;;;;;;14.40;5.80;;;;;;;10.74;89.46;102577.78;10212027;28;20517;-62
2022/05/09 07:08:32;;;;;;;9.68;5.82;;;;;;;11.52;85.38;102576.22;10213020;29;20056;-63
2022/05/09 07:13:35;;;;;;;14.52;4.93;;;;;;;12.51;77.40;102572.78;10212456;29;20545;-63
2022/05/09 07:18:38;;;;;;;11.57;4.70;;;;;;;12.90;74.77;102573.06;10212277;28;20130;-63
2022/05/09 07:23:42;;;;;;;20.10;5.13;;;;;;;13.40;73.63;102565.84;10213031;28;20054;-63
2022/05/09 07:28:44;;;;;;;12.75;5.47;;;;;;;13.65;69.68;102563.94;10212300;28;20070;-63
2022/05/09 07:33:47;;;;;;;14.00;5.15;;;;;;;13.95;68.55;102558.25;10236695;28;20047;-63
2022/05/09 07:38:50;;;;;;;21.58;6.05;;;;;;;14.61;65.90;102563.25;10251132;29;20062;-63
2022/05/09 07:43:54;;;;;;;11.05;4.97;;;;;;;14.44;65.06;102563.13;10250281;28;20063;-63
2022/05/09 07:48:56;;;;;;;19.17;6.57;;;;;;;15.23;63.71;102562.94;10250360;28;20106;-63
2022/05/09 07:53:58;;;;;;;15.25;4.88;;;;;;;15.58;61.85;102558.56;10249522;29;20044;-63
2022/05/09 07:59:02;;;;;;;10.82;4.85;;;;;;;15.97;60.40;102556.63;10250661;28;20051;-63
2022/05/09 08:04:04;;;;;;;11.35;4.60;;;;;;;16.22;56.33;102555.31;10249178;28;20410;-63
2022/05/09 08:09:07;;;;;;;8.40;4.80;;;;;;;16.72;57.52;102549.06;10249600;28;20047;-63
2022/05/09 08:14:11;;;;;;;11.55;5.40;;;;;;;16.99;54.86;102559.06;10248281;29;20418;-64
2022/05/09 08:19:18;;;;;;;6.95;4.07;;;;;;;17.92;52.26;102546.59;10249113;28;20051;-63
2022/05/09 08:24:21;;;;;;;13.70;4.88;;;;;;;18.31;53.29;102551.25;10248548;29;20047;-63
2022/05/09 08:29:23;;;;;;;9.00;4.88;;;;;;;19.54;52.48;102547.72;10249643;29;20055;-64
2022/05/09 08:34:25;;;;;;;10.45;3.92;;;;;;;19.94;50.24;102552.13;10249413;28;20047;-64
2022/05/09 08:39:28;;;;;;;10.50;4.82;;;;;;;19.14;50.02;102547.75;10249164;29;20055;-64
2022/05/09 08:44:51;;;;;;;11.82;4.85;;;;;;;19.55;49.47;102554.75;10248595;29;20070;-64
2022/05/09 08:50:14;;;;;;;8.23;5.05;;;;;;;20.50;50.81;102544.63;10247278;29;20055;-64
2022/05/09 08:55:38;;;;;;;8.63;4.40;;;;;;;20.00;48.89;102549.06;10247801;28;20057;-64
2022/05/09 09:00:41;;;;;;;8.60;3.72;;;;;;;20.47;48.36;102547.50;10248117;28;20410;-64
2022/05/09 09:05:46;;;;;;;11.50;4.35;;;;;;;20.87;45.79;102541.13;10247380;28;20048;-64
2022/05/09 09:11:01;;;;;;;8.45;3.58;;;;;;;21.53;44.69;102541.50;10248481;28;20053;-64
2022/05/09 09:16:20;;;;;;;7.18;3.30;;;;;;;21.71;45.12;102532.09;10247672;29;20055;-64
2022/05/09 09:21:34;;;;;;;9.95;3.67;;;;;;;20.28;41.52;102528.50;10246463;28;20047;-64
2022/05/09 09:26:49;;;;;;;7.18;3.15;;;;;;;22.65;45.54;102523.00;10247584;29;20105;-64
2022/05/09 09:32:00;;;;;;;12.23;4.40;;;;;;;23.00;44.72;102520.06;10247231;29;20054;-64
2022/05/09 09:37:18;;;;;;;10.48;3.63;;;;;;;23.06;44.21;102518.69;10247864;28;20048;-64
2022/05/09 09:42:20;;;;;;;9.32;4.05;;;;;;;23.37;44.08;102514.34;10214674;29;20074;-64
2022/05/09 09:47:27;;;;;;;10.50;3.25;;;;;;;22.36;41.30;102508.38;10208252;28;20063;-64
2022/05/09 09:52:55;;;;;;;10.18;3.75;;;;;;;23.34;39.78;102512.75;10213523;28;20063;-64
2022/05/09 09:58:18;;;;;;;12.02;3.97;;;;;;;22.73;40.99;102500.03;10214697;28;20047;-64
2022/05/09 10:03:23;;;;;;;10.95;3.47;;;;;;;24.76;40.14;102499.50;10214590;28;20059;-65
2022/05/09 10:08:37;;;;;;;7.47;3.72;;;;;;;25.56;39.72;102489.44;10212018;28;20050;-64
2022/05/09 10:13:42;;;;;;;9.20;3.92;;;;;;;24.13;40.03;102481.09;10211869;28;20062;-65
2022/05/09 10:18:46;;;;;;;9.32;3.53;;;;;;;26.52;37.98;102472.97;10214111;28;20059;-65
2022/05/09 10:29:17;;;;;;;7.25;2.97;;;;;;;25.54;38.09;102457.41;10213659;28;20062;-65
2022/05/09 10:34:21;;;;;;;7.30;3.00;;;;;;;25.53;37.32;102455.69;10212984;28;20500;-65
2022/05/09 10:39:33;;;;;;;7.20;3.13;;;;;;;23.80;39.26;102451.78;10211727;28;20407;-65
2022/05/09 10:44:45;;;;;;;10.67;3.33;;;;;;;23.95;38.46;102454.97;10211442;28;20052;-65
2022/05/09 10:49:51;;;;;;;7.38;2.80;;;;;;;27.24;36.99;102438.81;10213222;28;20118;-65
2022/05/09 10:55:06;;;;;;;11.40;3.15;;;;;;;27.50;35.96;102434.44;10195824;28;20402;-65
2022/05/09 11:00:13;;;;;;;8.63;2.95;;;;;;;27.83;34.97;102423.84;10210757;28;20060;-65
2022/05/09 11:05:16;;;;;;;8.50;3.58;;;;;;;25.44;36.94;102424.41;10212522;28;20055;-65
2022/05/09 11:10:38;;;;;;;9.80;3.17;;;;;;;26.42;37.64;102419.34;10211951;28;20538;-65
2022/05/09 11:16:05;;;;;;;9.50;3.35;;;;;;;26.46;34.38;102411.81;10211357;28;20048;-65
2022/05/09 11:21:32;;;;;;;10.02;3.10;;;;;;;25.14;36.21;102406.69;10212309;28;20051;-65
2022/05/09 11:27:07;;;;;;;7.35;3.10;;;;;;;28.53;32.92;102396.56;10212005;28;20058;-65
2022/05/09 11:32:41;;;;;;;7.45;3.30;;;;;;;28.21;33.65;102397.34;10211806;28;20063;-65
2022/05/09 11:38:03;;;;;;;4.90;2.30;;;;;;;28.89;34.21;102391.66;10211640;29;20055;-65
2022/05/09 11:43:50;;;;;;;7.78;3.10;;;;;;;26.43;35.59;102385.31;10211012;28;20090;-65
2022/05/09 11:49:23;;;;;;;15.85;3.22;;;;;;;27.69;34.52;102377.72;10212270;28;20059;-65
2022/05/09 11:54:32;;;;;;;6.70;2.33;;;;;;;28.30;35.69;102377.53;10211310;28;20051;-65
2022/05/09 11:59:38;;;;;;;9.90;3.08;;;;;;;29.98;32.65;102366.81;10211151;28;20059;-65
2022/05/09 12:04:46;;;;;;;5.82;2.58;;;;;;;29.73;32.06;102350.75;10209733;28;20372;-65
2022/05/09 12:09:54;;;;;;;10.68;3.00;;;;;;;28.45;32.11;102354.28;10209798;28;20047;-66
2022/05/09 12:14:57;;;;;;;8.13;2.35;;;;;;;29.46;32.35;102349.38;10210054;28;20054;-65
2022/05/09 12:19:59;;;;;;;5.38;2.45;;;;;;;28.24;32.46;102343.19;10209788;28;20487;-65
2022/05/09 12:25:06;;;;;;;7.35;3.05;;;;;;;32.04;30.85;102343.78;10209637;28;20479;-65
2022/05/09 12:30:32;;;;;;;7.47;2.83;;;;;;;26.60;34.85;102336.09;10210144;28;20066;-66
2022/05/09 12:35:37;;;;;;;7.68;2.75;;;;;;;27.16;32.70;102338.47;10209997;28;20051;-66
2022/05/09 12:40:39;;;;;;;10.40;3.17;;;;;;;30.37;30.44;102330.75;10209558;28;20064;-66
2022/05/09 12:45:42;;;;;;;5.75;3.17;;;;;;;28.79;32.60;102320.94;10209651;28;20052;-66
2022/05/09 12:50:45;;;;;;;5.30;2.45;;;;;;;29.87;33.44;102322.16;10208885;28;20503;-66
2022/05/09 12:55:52;;;;;;;12.68;2.92;;;;;;;28.01;33.09;102311.53;10209411;29;20078;-66
2022/05/09 13:01:10;;;;;;;6.57;2.63;;;;;;;30.15;30.63;102305.44;10209361;28;20047;-66
2022/05/09 13:06:38;;;;;;;6.55;2.55;;;;;;;29.97;33.84;102294.94;10208449;28;20430;-66
2022/05/09 13:11:41;;;;;;;5.95;2.55;;;;;;;29.90;30.98;102280.50;10207919;28;20056;-66
2022/05/09 13:16:55;;;;;;;6.53;3.40;;;;;;;28.37;32.68;102283.44;10208486;29;20055;-66
2022/05/09 13:21:58;;;;;;;9.48;3.05;;;;;;;28.29;32.43;102278.88;10208768;28;20091;-66
2022/05/09 13:27:04;;;;;;;7.43;2.47;;;;;;;31.05;28.72;102261.28;10212576;28;20043;-66
2022/05/09 13:32:08;;;;;;;5.45;2.15;;;;;;;29.83;28.43;102254.22;10213971;28;20514;-66
2022/05/09 13:37:12;;;;;;;5.82;2.90;;;;;;;30.24;29.37;102254.88;10214529;28;20058;-66
2022/05/09 13:42:24;;;;;;;6.55;2.63;;;;;;;29.77;32.72;102254.94;10214859;28;20060;-66
2022/05/09 13:47:28;;;;;;;6.63;3.95;;;;;;;27.55;33.02;102260.81;10214650;28;20074;-66
2022/05/09 13:52:38;;;;;;;5.65;3.17;;;;;;;30.33;29.57;102253.78;10213825;28;20052;-66
2022/05/09 13:57:41;;;;;;;7.70;3.40;;;;;;;29.36;29.85;102252.47;10214909;28;20048;-66
2022/05/09 14:02:45;;;;;;;9.90;4.18;;;;;;;28.12;31.65;102245.75;10215046;28;20078;-66
2022/05/09 14:07:50;;;;;;;8.90;4.65;;;;;;;28.49;32.58;102234.41;10213273;28;20047;-66
2022/05/09 14:12:53;;;;;;;10.35;4.30;;;;;;;27.94;33.86;102235.16;10213453;28;20056;-66
2022/05/09 14:18:09;;;;;;;10.65;5.18;;;;;;;29.36;31.51;102219.28;10213002;28;20050;-66
2022/05/09 14:23:19;;;;;;;8.45;4.72;;;;;;;27.54;34.36;102217.97;10222624;28;20505;-66
2022/05/09 14:33:48;;;;;;;8.32;5.45;;;;;;;28.36;31.40;102199.09;10239025;28;20410;-66
2022/05/09 14:38:56;;;;;;;7.53;4.55;;;;;;;28.61;33.67;102199.06;10213215;28;20070;-66
2022/05/09 14:44:24;;;;;;;9.02;4.20;;;;;;;28.32;33.12;102181.59;10212709;28;20056;-67
2022/05/09 14:49:27;;;;;;;9.85;5.68;;;;;;;28.13;33.08;102172.88;10213218;29;20058;-67
2022/05/09 14:54:42;;;;;;;12.15;4.72;;;;;;;29.57;31.82;102165.50;10212431;28;20059;-66
2022/05/09 14:59:45;;;;;;;13.68;6.30;;;;;;;27.58;32.96;102157.44;10445514;22;20057;-62
2022/05/09 15:04:48;;;;;;;10.02;4.35;;;;;;;28.04;32.86;102146.16;10460394;28;20053;-62
2022/05/09 15:09:51;;;;;;;13.77;5.38;;;;;;;29.49;31.35;102143.13;10461206;28;20511;-62
2022/05/09 15:14:54;;;;;;;8.95;4.72;;;;;;;28.50;32.38;102136.44;10460563;28;20049;-62
2022/05/09 15:19:57;;;;;;;14.75;5.07;;;;;;;29.02;32.34;102135.03;10459192;28;20048;-62
2022/05/09 15:24:59;;;;;;;8.80;4.32;;;;;;;27.76;34.92;102122.28;10460704;28;20135;-62
2022/05/09 15:30:02;;;;;;;6.20;5.15;;;;;;;27.58;34.32;102123.28;10459693;28;20068;-62
2022/05/09 15:35:08;;;;;;;10.68;5.18;;;;;;;27.65;33.95;102115.38;10458977;28;20055;-62
2022/05/09 15:40:12;;;;;;;11.63;6.10;;;;;;;27.11;35.21;102117.69;10460156;28;20049;-62
2022/05/09 15:45:18;;;;;;;4.65;3.65;;;;;;;27.39;35.61;102107.50;10460173;28;20049;-62
2022/05/09 15:50:21;;;;;;;8.70;5.68;;;;;;;26.51;36.05;102103.38;10459592;28;20052;-62
2022/05/09 15:55:23;;;;;;;12.07;4.82;;;;;;;27.38;36.25;102095.06;10459385;28;20055;-62
2022/05/09 16:00:26;;;;;;;12.07;5.93;;;;;;;26.77;37.37;102092.59;10459423;28;20045;-62
2022/05/09 16:11:23;;;;;;;19.17;6.13;;;;;;;26.74;36.85;102092.91;10458399;28;20080;-62
2022/05/09 16:16:19;;;;;;;23.83;7.03;;;;;;;25.63;37.52;102076.69;10457256;28;20080;-62
2022/05/09 16:21:22;;;;;;;14.82;6.60;;;;;;;25.93;37.85;102086.13;10457388;28;20415;-62
2022/05/09 16:26:29;;;;;;;8.85;5.38;;;;;;;26.18;37.92;102086.31;10457667;28;20107;-62
2022/05/09 16:31:32;;;;;;;10.00;6.05;;;;;;;25.47;37.39;102072.03;10457028;28;20063;-62
2022/05/09 16:36:34;;;;;;;8.07;4.45;;;;;;;26.16;37.34;102066.81;10457397;28;20068;-62
2022/05/09 16:41:37;;;;;;;7.68;4.32;;;;;;;25.63;38.55;102063.28;10457276;28;20407;-62
2022/05/09 16:46:39;;;;;;;14.48;5.07;;;;;;;25.52;38.34;102065.22;10457635;28;20052;-62
2022/05/09 16:51:41;;;;;;;7.70;5.32;;;;;;;25.44;38.74;102058.97;10457612;28;20053;-62
2022/05/09 16:57:04;;;;;;;8.88;4.90;;;;;;;25.04;38.86;102058.41;10457564;28;20060;-62
2022/05/09 17:02:06;;;;;;;7.57;4.30;;;;;;;24.79;40.95;102054.66;10457233;28;20053;-62
2022/05/09 17:07:09;;;;;;;9.00;4.13;;;;;;;24.72;41.03;102053.56;10457124;28;20041;-62
2022/05/09 17:12:36;;;;;;;17.70;5.07;;;;;;;24.56;42.30;102052.41;10457012;28;20052;-62
2022/05/09 17:17:41;;;;;;;8.90;3.67;;;;;;;24.31;44.87;102053.91;10456924;28;20120;-62
2022/05/09 17:22:46;;;;;;;7.22;3.28;;;;;;;24.26;46.07;102049.00;10456905;28;20129;-62
2022/05/09 17:27:49;;;;;;;17.50;3.83;;;;;;;24.50;45.45;102058.31;10456026;28;20049;-63
2022/05/09 17:32:52;;;;;;;8.85;3.33;;;;;;;24.20;48.98;102054.09;10456667;28;20061;-62
2022/05/09 17:37:56;;;;;;;7.38;3.28;;;;;;;23.78;48.93;102043.78;10456513;28;20049;-62
2022/05/09 17:42:59;;;;;;;5.57;2.78;;;;;;;23.19;52.79;102046.53;10456462;28;20052;-62
2022/05/09 17:48:01;;;;;;;5.60;3.03;;;;;;;22.77;52.73;102041.41;10456280;28;20045;-62
2022/05/09 17:53:04;;;;;;;3.88;2.70;;;;;;;22.62;55.52;102043.63;10456264;28;20049;-62
2022/05/09 17:58:06;;;;;;;9.65;2.70;;;;;;;22.22;56.00;102052.44;10455404;28;20053;-62
2022/05/09 18:03:09;;;;;;;7.78;2.67;;;;;;;21.89;57.21;102041.06;10455534;28;20047;-62
2022/05/09 18:08:11;;;;;;;4.75;2.83;;;;;;;21.41;59.12;102037.06;10426320;28;20099;-62
2022/05/09 18:13:14;;;;;;;6.72;2.65;;;;;;;21.35;59.71;102034.94;10419878;28;20439;-62
2022/05/09 18:18:27;;;;;;;5.22;3.35;;;;;;;21.22;60.94;102031.63;10450689;28;20055;-62
2022/05/09 18:23:30;;;;;;;6.25;2.65;;;;;;;21.07;60.80;102037.22;10462259;28;20476;-62
2022/05/09 18:28:32;;;;;;;6.57;2.95;;;;;;;21.10;60.58;102031.66;10461489;28;20404;-62
2022/05/09 18:33:36;;;;;;;5.10;2.65;;;;;;;20.39;61.52;102031.16;10461544;28;20052;-62
2022/05/09 18:38:40;;;;;;;3.83;2.65;;;;;;;20.19;63.17;102035.41;10461477;28;20041;-62
2022/05/09 18:43:47;;;;;;;3.47;2.60;;;;;;;19.82;64.01;102025.84;10461831;28;20052;-62
2022/05/09 18:54:11;;;;;;;5.40;2.70;;;;;;;19.46;64.54;102027.66;10462093;28;20053;-62
2022/05/09 18:59:14;;;;;;;18.85;3.35;;;;;;;19.17;65.82;102026.38;10460083;28;20522;-62
2022/05/09 19:04:17;;;;;;;5.68;2.78;;;;;;;18.94;66.76;102020.94;10461443;28;20053;-62
2022/05/09 19:09:20;;;;;;;8.85;3.33;;;;;;;18.70;67.83;102032.34;10459972;28;20051;-62
2022/05/09 19:14:27;;;;;;;7.97;2.95;;;;;;;18.51;67.91;102030.19;10443076;28;20053;-61
2022/05/09 19:19:29;;;;;;;4.47;2.65;;;;;;;18.63;65.65;102030.28;10461111;28;20052;-61
2022/05/09 19:24:32;;;;;;;5.00;2.70;;;;;;;18.24;67.34;102035.66;10458763;28;20053;-62
2022/05/09 19:29:37;;;;;;;8.93;3.10;;;;;;;18.21;67.66;102035.88;10455211;28;20049;-62
2022/05/09 19:34:39;;;;;;;3.35;2.83;;;;;;;18.13;68.17;102041.69;10460561;28;20053;-62
2022/05/09 19:39:42;;;;;;;8.80;2.53;;;;;;;17.96;68.76;102044.66;10460836;28;20060;-62
2022/05/09 19:44:47;;;;;;;6.28;3.33;;;;;;;17.75;70.55;102058.41;10459900;28;20056;-62
2022/05/09 19:49:51;;;;;;;4.75;2.67;;;;;;;17.56;71.54;102057.94;10459542;28;20053;-61
2022/05/09 19:54:54;;;;;;;7.18;3.00;;;;;;;17.44;71.31;102052.50;10459671;28;20087;-62
2022/05/09 19:59:56;;;;;;;6.68;3.92;;;;;;;17.33;71.50;102056.81;10458511;28;20049;-62
2022/05/09 20:05:05;;;;;;;6.95;3.10;;;;;;;17.35;70.60;102057.56;10459244;28;20075;-62
2022/05/09 20:10:09;;;;;;;5.22;3.15;;;;;;;17.08;71.88;102061.09;10458729;28;20052;-61
2022/05/09 20:15:12;;;;;;;4.28;2.75;;;;;;;17.09;70.87;102062.78;10458862;28;20064;-62
2022/05/09 20:20:14;;;;;;;6.40;2.45;;;;;;;16.93;71.50;102059.41;10457509;28;20056;-62
2022/05/09 20:25:17;;;;;;;9.02;3.65;;;;;;;16.83;71.77;102059.97;10458453;28;20084;-61
2022/05/09 20:30:19;;;;;;;8.15;3.75;;;;;;;16.89;72.16;102056.13;10457347;28;20507;-62
2022/05/09 20:35:23;;;;;;;5.50;2.70;;;;;;;16.62;72.29;102059.53;10457875;28;20053;-62
2022/05/09 20:40:37;;;;;;;4.28;2.83;;;;;;;16.63;72.99;102063.06;10457911;28;20049;-61
2022/05/09 20:45:39;;;;;;;6.78;3.15;;;;;;;16.57;73.16;102053.69;10456344;28;20123;-61
2022/05/09 20:50:42;;;;;;;8.07;3.38;;;;;;;16.53;74.09;102047.75;10456574;28;20103;-61
2022/05/09 20:55:45;;;;;;;4.32;3.08;;;;;;;16.48;75.53;102044.53;10454623;28;20407;-62
2022/05/09 21:00:48;;;;;;;4.80;2.67;;;;;;;16.41;76.64;102048.53;10456922;28;20132;-61
2022/05/09 21:05:51;;;;;;;5.47;2.83;;;;;;;16.21;77.19;102048.91;10456172;28;20055;-61
2022/05/09 21:11:13;;;;;;;3.33;3.03;;;;;;;16.21;75.85;102036.53;10456441;28;20426;-62
2022/05/09 21:16:16;;;;;;;3.70;2.92;;;;;;;16.14;75.15;102038.72;10456987;28;20045;-62
2022/05/09 21:21:18;;;;;;;5.13;3.13;;;;;;;16.15;73.88;102037.78;10456601;28;20132;-61
2022/05/09 21:26:23;;;;;;;4.55;2.78;;;;;;;15.96;76.34;102031.91;10455832;28;20419;-62
2022/05/09 21:31:26;;;;;;;4.85;2.97;;;;;;;15.98;75.03;102037.94;10455540;28;20049;-61
2022/05/09 21:36:34;;;;;;;3.58;2.58;;;;;;;15.81;77.16;102038.13;10457143;28;20091;-61
2022/05/09 21:41:36;;;;;;;3.33;3.00;;;;;;;15.73;78.76;102026.16;10455148;28;20080;-61
2022/05/09 21:46:38;;;;;;;7.68;3.38;;;;;;;15.48;81.06;102033.84;10441650;28;20049;-61
2022/05/09 21:51:42;;;;;;;4.00;3.10;;;;;;;15.51;80.01;102009.91;10463571;28;20063;-61
2022/05/09 21:56:45;;;;;;;7.40;3.47;;;;;;;15.61;76.06;102011.06;10462881;28;20045;-61
2022/05/09 22:01:47;;;;;;;5.85;3.17;;;;;;;15.60;77.57;102001.44;10464098;28;20045;-61
2022/05/09 22:06:51;;;;;;;5.13;3.15;;;;;;;15.47;79.05;102005.78;10463944;28;20052;-61
2022/05/09 22:11:55;;;;;;;3.67;3.30;;;;;;;15.44;79.25;101995.41;10463416;28;20087;-61
2022/05/09 22:16:59;;;;;;;4.07;2.90;;;;;;;15.50;79.31;102002.94;10463292;28;20052;-61
2022/05/09 22:22:04;;;;;;;7.03;3.10;;;;;;;15.22;81.21;101992.22;10462504;28;20118;-61
2022/05/09 22:27:06;;;;;;;5.18;3.17;;;;;;;15.19;80.51;101991.53;10462464;28;20056;-61
2022/05/09 22:32:11;;;;;;;7.35;4.35;;;;;;;15.51;78.54;101989.66;10445287;28;20107;-61
2022/05/09 22:37:27;;;;;;;7.13;3.40;;;;;;;15.30;77.28;101988.25;10462184;28;20503;-61
2022/05/09 22:42:32;;;;;;;7.78;3.85;;;;;;;15.36;78.96;101985.28;10462290;28;20045;-61
2022/05/09 22:47:35;;;;;;;6.97;3.25;;;;;;;15.48;78.20;101981.91;10461615;28;20400;-61
2022/05/09 22:52:37;;;;;;;5.53;3.50;;;;;;;15.45;78.98;101971.56;10461872;28;20056;-61
2022/05/09 22:57:50;;;;;;;8.45;3.95;;;;;;;15.38;81.40;101978.13;10461611;28;20059;-61
2022/05/09 23:02:57;;;;;;;5.63;3.50;;;;;;;15.24;82.92;101971.03;10461843;28;20049;-61
2022/05/09 23:08:00;;;;;;;6.72;4.43;;;;;;;15.04;85.50;101967.75;10460770;28;20403;-61
2022/05/09 23:13:05;;;;;;;6.97;4.28;;;;;;;14.91;86.92;101960.63;10460469;28;20204;-61
2022/05/09 23:18:08;;;;;;;5.55;4.15;;;;;;;14.89;87.92;101949.31;10460996;28;20041;-61
2022/05/09 23:23:11;;;;;;;8.07;4.43;;;;;;;15.26;83.62;101950.66;10461012;28;20106;-61
2022/05/09 23:28:16;;;;;;;7.15;5.07;;;;;;;14.92;87.33;101934.19;10460765;28;20063;-61
2022/05/09 23:33:27;;;;;;;6.63;5.80;;;;;;;15.16;86.00;101934.56;10459854;28;20049;-61
2022/05/09 23:38:29;;;;;;;11.77;5.97;;;;;;;14.97;86.38;101929.47;10460441;28;20053;-61
2022/05/09 23:43:35;;;;;;;7.95;6.57;;;;;;;15.42;82.87;101929.50;10460038;28;20056;-61
2022/05/09 23:48:39;;;;;;;7.93;6.63;;;;;;;15.75;80.56;101926.66;10458596;28;20056;-61
2022/05/09 23:53:41;;;;;;;12.63;7.97;;;;;;;16.20;76.50;101931.78;10458308;28;20057;-61
2022/05/09 23:58:44;;;;;;;13.48;9.55;;;;;;;16.71;74.09;101942.63;10459396;28;20053;-61
